sensor_id;sensor_type;location;lat;lon;timestamp;P1;durP1;ratioP1;P2;durP2;ratioP2
84915;SDS011;75178;53.054;5.846;2024-03-08T00:02:12;36.85;;;20.50;;
84915;SDS011;75178;53.054;5.846;2024-03-08T00:05:00;38.50;;;21.10;;
84915;SDS011;75178;53.054;5.846;2024-03-08T00:07:44;38.70;;;20.73;;
84915;SDS011;75178;53.054;5.846;2024-03-08T00:10:28;34.78;;;20.55;;
84915;SDS011;75178;53.054;5.846;2024-03-08T00:13:13;33.83;;;19.85;;
84915;SDS011;75178;53.054;5.846;2024-03-08T00:15:57;38.72;;;19.88;;
84915;SDS011;75178;53.054;5.846;2024-03-08T00:18:41;40.10;;;21.92;;
84915;SDS011;75178;53.054;5.846;2024-03-08T00:21:27;38.80;;;21.33;;
84915;SDS011;75178;53.054;5.846;2024-03-08T00:24:11;36.80;;;20.02;;
84915;SDS011;75178;53.054;5.846;2024-03-08T00:26:55;35.78;;;19.50;;
84915;SDS011;75178;53.054;5.846;2024-03-08T00:29:39;34.30;;;19.75;;
84915;SDS011;75178;53.054;5.846;2024-03-08T00:32:23;37.85;;;20.00;;
84915;SDS011;75178;53.054;5.846;2024-03-08T00:35:07;34.85;;;19.48;;
84915;SDS011;75178;53.054;5.846;2024-03-08T00:37:53;36.08;;;20.58;;
84915;SDS011;75178;53.054;5.846;2024-03-08T00:40:37;41.55;;;19.98;;
84915;SDS011;75178;53.054;5.846;2024-03-08T00:43:21;42.33;;;21.13;;
84915;SDS011;75178;53.054;5.846;2024-03-08T00:46:05;33.53;;;20.75;;
84915;SDS011;75178;53.054;5.846;2024-03-08T00:48:50;34.88;;;20.20;;
84915;SDS011;75178;53.054;5.846;2024-03-08T00:51:34;40.33;;;21.52;;
84915;SDS011;75178;53.054;5.846;2024-03-08T00:54:19;37.20;;;21.02;;
84915;SDS011;75178;53.054;5.846;2024-03-08T00:57:04;36.40;;;19.95;;
84915;SDS011;75178;53.054;5.846;2024-03-08T00:59:48;42.40;;;21.63;;
84915;SDS011;75178;53.054;5.846;2024-03-08T01:02:32;39.42;;;21.50;;
84915;SDS011;75178;53.054;5.846;2024-03-08T01:05:17;37.38;;;21.23;;
84915;SDS011;75178;53.054;5.846;2024-03-08T01:08:01;35.95;;;21.02;;
84915;SDS011;75178;53.054;5.846;2024-03-08T01:10:47;37.75;;;21.27;;
84915;SDS011;75178;53.054;5.846;2024-03-08T01:13:31;38.20;;;21.15;;
84915;SDS011;75178;53.054;5.846;2024-03-08T01:16:15;40.13;;;22.10;;
84915;SDS011;75178;53.054;5.846;2024-03-08T01:18:59;42.97;;;22.50;;
84915;SDS011;75178;53.054;5.846;2024-03-08T01:21:43;40.28;;;22.38;;
84915;SDS011;75178;53.054;5.846;2024-03-08T01:24:28;42.08;;;22.42;;
84915;SDS011;75178;53.054;5.846;2024-03-08T01:27:14;47.42;;;23.45;;
84915;SDS011;75178;53.054;5.846;2024-03-08T01:29:58;50.58;;;25.35;;
84915;SDS011;75178;53.054;5.846;2024-03-08T01:32:42;47.33;;;23.95;;
84915;SDS011;75178;53.054;5.846;2024-03-08T01:35:26;40.60;;;23.58;;
84915;SDS011;75178;53.054;5.846;2024-03-08T01:38:10;46.78;;;24.52;;
84915;SDS011;75178;53.054;5.846;2024-03-08T01:40:54;41.95;;;24.15;;
84915;SDS011;75178;53.054;5.846;2024-03-08T01:43:40;43.08;;;24.50;;
84915;SDS011;75178;53.054;5.846;2024-03-08T01:46:24;45.40;;;25.92;;
84915;SDS011;75178;53.054;5.846;2024-03-08T01:49:09;44.33;;;24.15;;
84915;SDS011;75178;53.054;5.846;2024-03-08T01:51:53;46.35;;;25.70;;
84915;SDS011;75178;53.054;5.846;2024-03-08T01:54:39;46.78;;;24.23;;
84915;SDS011;75178;53.054;5.846;2024-03-08T01:57:23;45.55;;;24.55;;
84915;SDS011;75178;53.054;5.846;2024-03-08T02:00:09;43.17;;;24.63;;
84915;SDS011;75178;53.054;5.846;2024-03-08T02:02:54;42.42;;;24.45;;
84915;SDS011;75178;53.054;5.846;2024-03-08T02:05:41;48.05;;;24.75;;
84915;SDS011;75178;53.054;5.846;2024-03-08T02:08:25;44.33;;;24.35;;
84915;SDS011;75178;53.054;5.846;2024-03-08T02:11:10;59.10;;;25.40;;
84915;SDS011;75178;53.054;5.846;2024-03-08T02:13:54;46.22;;;24.73;;
84915;SDS011;75178;53.054;5.846;2024-03-08T02:16:40;45.85;;;26.05;;
84915;SDS011;75178;53.054;5.846;2024-03-08T02:19:24;47.22;;;25.25;;
84915;SDS011;75178;53.054;5.846;2024-03-08T02:22:09;42.20;;;23.17;;
84915;SDS011;75178;53.054;5.846;2024-03-08T02:24:54;46.40;;;25.05;;
84915;SDS011;75178;53.054;5.846;2024-03-08T02:27:38;49.80;;;26.15;;
84915;SDS011;75178;53.054;5.846;2024-03-08T02:30:22;50.63;;;25.20;;
84915;SDS011;75178;53.054;5.846;2024-03-08T02:33:07;48.72;;;24.70;;
84915;SDS011;75178;53.054;5.846;2024-03-08T02:35:51;46.13;;;25.85;;
84915;SDS011;75178;53.054;5.846;2024-03-08T02:38:37;51.42;;;26.38;;
84915;SDS011;75178;53.054;5.846;2024-03-08T02:41:22;48.58;;;27.95;;
84915;SDS011;75178;53.054;5.846;2024-03-08T02:44:06;46.70;;;25.98;;
84915;SDS011;75178;53.054;5.846;2024-03-08T02:46:50;50.38;;;27.20;;
84915;SDS011;75178;53.054;5.846;2024-03-08T02:49:34;51.85;;;26.60;;
84915;SDS011;75178;53.054;5.846;2024-03-08T02:52:18;51.40;;;28.77;;
84915;SDS011;75178;53.054;5.846;2024-03-08T02:55:04;55.15;;;26.95;;
84915;SDS011;75178;53.054;5.846;2024-03-08T02:57:49;56.00;;;28.02;;
84915;SDS011;75178;53.054;5.846;2024-03-08T03:00:33;53.67;;;28.80;;
84915;SDS011;75178;53.054;5.846;2024-03-08T03:03:17;50.72;;;26.27;;
84915;SDS011;75178;53.054;5.846;2024-03-08T03:06:01;51.40;;;27.38;;
84915;SDS011;75178;53.054;5.846;2024-03-08T03:08:46;51.13;;;26.98;;
84915;SDS011;75178;53.054;5.846;2024-03-08T03:11:31;59.70;;;28.67;;
84915;SDS011;75178;53.054;5.846;2024-03-08T03:14:16;53.40;;;27.35;;
84915;SDS011;75178;53.054;5.846;2024-03-08T03:17:00;51.42;;;28.38;;
84915;SDS011;75178;53.054;5.846;2024-03-08T03:19:44;57.53;;;27.33;;
84915;SDS011;75178;53.054;5.846;2024-03-08T03:22:28;48.45;;;27.00;;
84915;SDS011;75178;53.054;5.846;2024-03-08T03:25:12;56.67;;;28.70;;
84915;SDS011;75178;53.054;5.846;2024-03-08T03:27:58;53.50;;;27.98;;
84915;SDS011;75178;53.054;5.846;2024-03-08T03:30:42;54.42;;;28.38;;
84915;SDS011;75178;53.054;5.846;2024-03-08T03:33:27;53.53;;;27.48;;
84915;SDS011;75178;53.054;5.846;2024-03-08T03:36:11;57.55;;;28.73;;
84915;SDS011;75178;53.054;5.846;2024-03-08T03:38:56;57.92;;;29.02;;
84915;SDS011;75178;53.054;5.846;2024-03-08T03:41:40;50.90;;;26.50;;
84915;SDS011;75178;53.054;5.846;2024-03-08T03:44:25;51.20;;;25.58;;
84915;SDS011;75178;53.054;5.846;2024-03-08T03:47:10;49.45;;;27.45;;
84915;SDS011;75178;53.054;5.846;2024-03-08T03:49:54;50.65;;;25.48;;
84915;SDS011;75178;53.054;5.846;2024-03-08T03:52:38;52.47;;;26.38;;
84915;SDS011;75178;53.054;5.846;2024-03-08T03:55:22;51.88;;;26.55;;
84915;SDS011;75178;53.054;5.846;2024-03-08T03:58:06;49.28;;;26.35;;
84915;SDS011;75178;53.054;5.846;2024-03-08T04:00:52;52.17;;;25.38;;
84915;SDS011;75178;53.054;5.846;2024-03-08T04:03:36;46.30;;;25.75;;
84915;SDS011;75178;53.054;5.846;2024-03-08T04:06:21;51.63;;;27.48;;
84915;SDS011;75178;53.054;5.846;2024-03-08T04:09:05;45.90;;;26.30;;
84915;SDS011;75178;53.054;5.846;2024-03-08T04:11:49;61.30;;;27.80;;
84915;SDS011;75178;53.054;5.846;2024-03-08T04:14:33;50.58;;;27.45;;
84915;SDS011;75178;53.054;5.846;2024-03-08T04:17:19;50.20;;;26.75;;
84915;SDS011;75178;53.054;5.846;2024-03-08T04:20:03;54.45;;;25.73;;
84915;SDS011;75178;53.054;5.846;2024-03-08T04:22:48;43.13;;;25.40;;
84915;SDS011;75178;53.054;5.846;2024-03-08T04:25:32;48.58;;;26.33;;
84915;SDS011;75178;53.054;5.846;2024-03-08T04:28:16;47.08;;;25.70;;
84915;SDS011;75178;53.054;5.846;2024-03-08T04:31:00;47.80;;;26.83;;
84915;SDS011;75178;53.054;5.846;2024-03-08T04:33:45;46.33;;;24.95;;
84915;SDS011;75178;53.054;5.846;2024-03-08T04:36:29;43.10;;;24.90;;
84915;SDS011;75178;53.054;5.846;2024-03-08T04:39:13;46.88;;;25.80;;
84915;SDS011;75178;53.054;5.846;2024-03-08T04:41:59;45.67;;;23.73;;
84915;SDS011;75178;53.054;5.846;2024-03-08T04:44:46;45.67;;;25.70;;
84915;SDS011;75178;53.054;5.846;2024-03-08T04:47:30;49.42;;;26.08;;
84915;SDS011;75178;53.054;5.846;2024-03-08T04:50:16;47.67;;;25.40;;
84915;SDS011;75178;53.054;5.846;2024-03-08T04:53:00;46.67;;;24.85;;
84915;SDS011;75178;53.054;5.846;2024-03-08T04:55:44;50.60;;;25.02;;
84915;SDS011;75178;53.054;5.846;2024-03-08T04:58:28;47.65;;;25.58;;
84915;SDS011;75178;53.054;5.846;2024-03-08T05:01:13;47.13;;;26.02;;
84915;SDS011;75178;53.054;5.846;2024-03-08T05:03:57;48.72;;;25.40;;
84915;SDS011;75178;53.054;5.846;2024-03-08T05:06:42;46.78;;;25.85;;
84915;SDS011;75178;53.054;5.846;2024-03-08T05:09:27;45.45;;;23.83;;
84915;SDS011;75178;53.054;5.846;2024-03-08T05:12:11;47.03;;;25.20;;
84915;SDS011;75178;53.054;5.846;2024-03-08T05:14:55;47.00;;;25.63;;
84915;SDS011;75178;53.054;5.846;2024-03-08T05:17:39;45.08;;;24.33;;
84915;SDS011;75178;53.054;5.846;2024-03-08T05:20:23;44.35;;;23.23;;
84915;SDS011;75178;53.054;5.846;2024-03-08T05:23:08;42.92;;;24.80;;
84915;SDS011;75178;53.054;5.846;2024-03-08T05:25:52;47.80;;;25.20;;
84915;SDS011;75178;53.054;5.846;2024-03-08T05:28:37;44.63;;;24.40;;
84915;SDS011;75178;53.054;5.846;2024-03-08T05:31:21;47.80;;;24.55;;
84915;SDS011;75178;53.054;5.846;2024-03-08T05:34:06;44.28;;;24.67;;
84915;SDS011;75178;53.054;5.846;2024-03-08T05:36:50;43.13;;;24.60;;
84915;SDS011;75178;53.054;5.846;2024-03-08T05:39:36;46.58;;;24.83;;
84915;SDS011;75178;53.054;5.846;2024-03-08T05:42:20;42.50;;;23.42;;
84915;SDS011;75178;53.054;5.846;2024-03-08T05:45:05;46.65;;;25.10;;
84915;SDS011;75178;53.054;5.846;2024-03-08T05:47:49;43.80;;;24.27;;
84915;SDS011;75178;53.054;5.846;2024-03-08T05:50:33;50.80;;;25.88;;
84915;SDS011;75178;53.054;5.846;2024-03-08T05:53:17;49.20;;;28.15;;
84915;SDS011;75178;53.054;5.846;2024-03-08T05:56:03;50.58;;;26.50;;
84915;SDS011;75178;53.054;5.846;2024-03-08T05:58:48;46.90;;;25.65;;
84915;SDS011;75178;53.054;5.846;2024-03-08T06:01:32;42.83;;;24.02;;
84915;SDS011;75178;53.054;5.846;2024-03-08T06:04:16;44.63;;;24.25;;
84915;SDS011;75178;53.054;5.846;2024-03-08T06:07:00;42.95;;;23.80;;
84915;SDS011;75178;53.054;5.846;2024-03-08T06:09:44;44.67;;;24.50;;
84915;SDS011;75178;53.054;5.846;2024-03-08T06:12:30;46.38;;;24.70;;
84915;SDS011;75178;53.054;5.846;2024-03-08T06:15:14;47.88;;;24.73;;
84915;SDS011;75178;53.054;5.846;2024-03-08T06:17:58;44.53;;;24.50;;
84915;SDS011;75178;53.054;5.846;2024-03-08T06:20:42;41.40;;;24.77;;
84915;SDS011;75178;53.054;5.846;2024-03-08T06:23:26;46.80;;;25.08;;
84915;SDS011;75178;53.054;5.846;2024-03-08T06:26:11;53.15;;;26.20;;
84915;SDS011;75178;53.054;5.846;2024-03-08T06:28:56;49.00;;;26.08;;
84915;SDS011;75178;53.054;5.846;2024-03-08T06:31:40;49.15;;;24.98;;
84915;SDS011;75178;53.054;5.846;2024-03-08T06:34:25;43.50;;;24.08;;
84915;SDS011;75178;53.054;5.846;2024-03-08T06:37:09;45.15;;;24.55;;
84915;SDS011;75178;53.054;5.846;2024-03-08T06:39:53;42.55;;;23.73;;
84915;SDS011;75178;53.054;5.846;2024-03-08T06:42:37;43.20;;;24.50;;
84915;SDS011;75178;53.054;5.846;2024-03-08T06:45:23;47.53;;;25.75;;
84915;SDS011;75178;53.054;5.846;2024-03-08T06:48:07;42.75;;;24.67;;
84915;SDS011;75178;53.054;5.846;2024-03-08T06:50:51;45.85;;;25.25;;
84915;SDS011;75178;53.054;5.846;2024-03-08T06:53:35;46.05;;;26.55;;
84915;SDS011;75178;53.054;5.846;2024-03-08T06:56:19;44.40;;;24.88;;
84915;SDS011;75178;53.054;5.846;2024-03-08T06:59:03;46.95;;;25.15;;
84915;SDS011;75178;53.054;5.846;2024-03-08T07:01:49;43.65;;;24.55;;
84915;SDS011;75178;53.054;5.846;2024-03-08T07:04:33;55.47;;;26.05;;
84915;SDS011;75178;53.054;5.846;2024-03-08T07:07:17;46.20;;;24.92;;
84915;SDS011;75178;53.054;5.846;2024-03-08T07:10:01;43.83;;;23.90;;
84915;SDS011;75178;53.054;5.846;2024-03-08T07:12:46;48.47;;;24.75;;
84915;SDS011;75178;53.054;5.846;2024-03-08T07:15:30;54.80;;;27.27;;
84915;SDS011;75178;53.054;5.846;2024-03-08T07:18:15;45.03;;;25.08;;
84915;SDS011;75178;53.054;5.846;2024-03-08T07:20:59;48.40;;;25.75;;
84915;SDS011;75178;53.054;5.846;2024-03-08T07:23:44;42.88;;;25.13;;
84915;SDS011;75178;53.054;5.846;2024-03-08T07:26:28;46.63;;;26.52;;
84915;SDS011;75178;53.054;5.846;2024-03-08T07:29:12;44.33;;;24.20;;
84915;SDS011;75178;53.054;5.846;2024-03-08T07:31:56;40.33;;;23.40;;
84915;SDS011;75178;53.054;5.846;2024-03-08T07:34:42;41.05;;;23.92;;
84915;SDS011;75178;53.054;5.846;2024-03-08T07:37:26;48.05;;;25.23;;
84915;SDS011;75178;53.054;5.846;2024-03-08T07:40:10;44.05;;;25.08;;
84915;SDS011;75178;53.054;5.846;2024-03-08T07:42:55;41.10;;;25.95;;
84915;SDS011;75178;53.054;5.846;2024-03-08T07:45:39;43.63;;;24.60;;
84915;SDS011;75178;53.054;5.846;2024-03-08T07:48:23;45.08;;;23.67;;
84915;SDS011;75178;53.054;5.846;2024-03-08T07:51:09;47.80;;;24.65;;
84915;SDS011;75178;53.054;5.846;2024-03-08T07:53:53;50.50;;;25.92;;
84915;SDS011;75178;53.054;5.846;2024-03-08T07:56:37;45.22;;;24.55;;
84915;SDS011;75178;53.054;5.846;2024-03-08T07:59:21;41.33;;;23.92;;
84915;SDS011;75178;53.054;5.846;2024-03-08T08:02:05;43.95;;;24.95;;
84915;SDS011;75178;53.054;5.846;2024-03-08T08:04:49;44.17;;;23.95;;
84915;SDS011;75178;53.054;5.846;2024-03-08T08:07:35;40.47;;;23.65;;
84915;SDS011;75178;53.054;5.846;2024-03-08T08:10:19;39.90;;;24.58;;
84915;SDS011;75178;53.054;5.846;2024-03-08T08:13:03;42.00;;;24.90;;
84915;SDS011;75178;53.054;5.846;2024-03-08T08:15:48;52.67;;;25.75;;
84915;SDS011;75178;53.054;5.846;2024-03-08T08:18:32;41.90;;;23.35;;
84915;SDS011;75178;53.054;5.846;2024-03-08T08:21:16;40.47;;;24.45;;
84915;SDS011;75178;53.054;5.846;2024-03-08T08:24:01;42.10;;;24.13;;
84915;SDS011;75178;53.054;5.846;2024-03-08T08:26:46;37.28;;;22.77;;
84915;SDS011;75178;53.054;5.846;2024-03-08T08:29:30;36.65;;;22.63;;
84915;SDS011;75178;53.054;5.846;2024-03-08T08:32:14;41.88;;;24.85;;
84915;SDS011;75178;53.054;5.846;2024-03-08T08:34:59;42.55;;;25.17;;
84915;SDS011;75178;53.054;5.846;2024-03-08T08:37:43;44.47;;;24.20;;
84915;SDS011;75178;53.054;5.846;2024-03-08T08:40:28;39.63;;;23.85;;
84915;SDS011;75178;53.054;5.846;2024-03-08T08:43:12;41.35;;;24.17;;
84915;SDS011;75178;53.054;5.846;2024-03-08T08:45:57;35.78;;;23.33;;
84915;SDS011;75178;53.054;5.846;2024-03-08T08:48:41;38.80;;;24.73;;
84915;SDS011;75178;53.054;5.846;2024-03-08T08:51:28;37.30;;;22.27;;
84915;SDS011;75178;53.054;5.846;2024-03-08T08:54:12;41.30;;;22.60;;
84915;SDS011;75178;53.054;5.846;2024-03-08T08:56:57;37.45;;;23.25;;
84915;SDS011;75178;53.054;5.846;2024-03-08T08:59:42;39.38;;;22.20;;
84915;SDS011;75178;53.054;5.846;2024-03-08T09:02:26;41.35;;;21.27;;
84915;SDS011;75178;53.054;5.846;2024-03-08T09:05:10;35.05;;;21.95;;
84915;SDS011;75178;53.054;5.846;2024-03-08T09:07:55;36.35;;;22.92;;
84915;SDS011;75178;53.054;5.846;2024-03-08T09:10:39;35.42;;;22.73;;
84915;SDS011;75178;53.054;5.846;2024-03-08T09:13:24;33.95;;;21.70;;
84915;SDS011;75178;53.054;5.846;2024-03-08T09:16:08;38.60;;;22.55;;
84915;SDS011;75178;53.054;5.846;2024-03-08T09:18:52;34.60;;;22.05;;
84915;SDS011;75178;53.054;5.846;2024-03-08T09:21:37;36.28;;;22.23;;
84915;SDS011;75178;53.054;5.846;2024-03-08T09:24:21;37.90;;;21.88;;
84915;SDS011;75178;53.054;5.846;2024-03-08T09:27:05;39.35;;;23.27;;
84915;SDS011;75178;53.054;5.846;2024-03-08T09:29:51;36.20;;;22.27;;
84915;SDS011;75178;53.054;5.846;2024-03-08T09:32:35;34.20;;;21.65;;
84915;SDS011;75178;53.054;5.846;2024-03-08T09:35:19;37.15;;;22.20;;
84915;SDS011;75178;53.054;5.846;2024-03-08T09:38:04;34.60;;;21.45;;
84915;SDS011;75178;53.054;5.846;2024-03-08T09:40:48;37.40;;;22.40;;
84915;SDS011;75178;53.054;5.846;2024-03-08T09:43:32;39.55;;;22.40;;
84915;SDS011;75178;53.054;5.846;2024-03-08T09:46:18;35.70;;;22.35;;
84915;SDS011;75178;53.054;5.846;2024-03-08T09:49:03;36.92;;;22.50;;
84915;SDS011;75178;53.054;5.846;2024-03-08T09:51:47;41.45;;;24.27;;
84915;SDS011;75178;53.054;5.846;2024-03-08T09:54:32;40.13;;;21.88;;
84915;SDS011;75178;53.054;5.846;2024-03-08T09:57:17;37.20;;;22.52;;
84915;SDS011;75178;53.054;5.846;2024-03-08T10:00:03;37.00;;;22.88;;
84915;SDS011;75178;53.054;5.846;2024-03-08T10:02:49;34.22;;;22.83;;
84915;SDS011;75178;53.054;5.846;2024-03-08T10:05:34;38.92;;;23.25;;
84915;SDS011;75178;53.054;5.846;2024-03-08T10:08:19;37.90;;;22.63;;
84915;SDS011;75178;53.054;5.846;2024-03-08T10:11:03;33.63;;;23.25;;
84915;SDS011;75178;53.054;5.846;2024-03-08T10:13:48;40.92;;;23.15;;
84915;SDS011;75178;53.054;5.846;2024-03-08T10:16:34;35.10;;;22.48;;
84915;SDS011;75178;53.054;5.846;2024-03-08T10:19:20;37.85;;;23.05;;
84915;SDS011;75178;53.054;5.846;2024-03-08T10:22:05;42.83;;;23.35;;
84915;SDS011;75178;53.054;5.846;2024-03-08T10:24:49;37.55;;;22.95;;
84915;SDS011;75178;53.054;5.846;2024-03-08T10:27:33;39.83;;;22.65;;
84915;SDS011;75178;53.054;5.846;2024-03-08T10:30:17;35.95;;;22.98;;
84915;SDS011;75178;53.054;5.846;2024-03-08T10:33:01;32.33;;;20.95;;
84915;SDS011;75178;53.054;5.846;2024-03-08T10:35:46;35.55;;;22.05;;
84915;SDS011;75178;53.054;5.846;2024-03-08T10:38:30;35.03;;;21.85;;
84915;SDS011;75178;53.054;5.846;2024-03-08T10:41:16;38.40;;;22.88;;
84915;SDS011;75178;53.054;5.846;2024-03-08T10:44:08;42.88;;;23.60;;
84915;SDS011;75178;53.054;5.846;2024-03-08T10:47:00;37.65;;;23.30;;
84915;SDS011;75178;53.054;5.846;2024-03-08T10:49:50;36.28;;;22.33;;
84915;SDS011;75178;53.054;5.846;2024-03-08T10:52:39;36.50;;;23.98;;
84915;SDS011;75178;53.054;5.846;2024-03-08T10:55:24;37.75;;;23.30;;
84915;SDS011;75178;53.054;5.846;2024-03-08T10:58:11;36.85;;;23.67;;
84915;SDS011;75178;53.054;5.846;2024-03-08T11:00:56;38.78;;;23.77;;
84915;SDS011;75178;53.054;5.846;2024-03-08T11:03:44;41.45;;;23.58;;
84915;SDS011;75178;53.054;5.846;2024-03-08T11:06:30;34.03;;;21.48;;
84915;SDS011;75178;53.054;5.846;2024-03-08T11:09:29;37.70;;;24.88;;
84915;SDS011;75178;53.054;5.846;2024-03-08T11:12:21;38.78;;;23.40;;
84915;SDS011;75178;53.054;5.846;2024-03-08T11:15:09;36.80;;;23.85;;
84915;SDS011;75178;53.054;5.846;2024-03-08T11:17:57;37.83;;;22.27;;
84915;SDS011;75178;53.054;5.846;2024-03-08T11:20:43;33.53;;;22.77;;
84915;SDS011;75178;53.054;5.846;2024-03-08T11:23:27;33.45;;;22.40;;
84915;SDS011;75178;53.054;5.846;2024-03-08T11:26:18;37.00;;;23.48;;
84915;SDS011;75178;53.054;5.846;2024-03-08T11:32:18;34.72;;;23.05;;
84915;SDS011;75178;53.054;5.846;2024-03-08T11:35:05;39.75;;;23.10;;
84915;SDS011;75178;53.054;5.846;2024-03-08T11:37:50;34.28;;;21.70;;
84915;SDS011;75178;53.054;5.846;2024-03-08T11:40:34;32.83;;;21.58;;
84915;SDS011;75178;53.054;5.846;2024-03-08T11:43:20;34.70;;;21.60;;
84915;SDS011;75178;53.054;5.846;2024-03-08T11:46:07;32.03;;;22.30;;
84915;SDS011;75178;53.054;5.846;2024-03-08T11:48:53;31.88;;;21.77;;
84915;SDS011;75178;53.054;5.846;2024-03-08T11:51:38;31.65;;;22.25;;
84915;SDS011;75178;53.054;5.846;2024-03-08T11:54:23;32.97;;;21.67;;
84915;SDS011;75178;53.054;5.846;2024-03-08T11:57:07;40.03;;;23.40;;
84915;SDS011;75178;53.054;5.846;2024-03-08T11:59:53;35.15;;;22.33;;
84915;SDS011;75178;53.054;5.846;2024-03-08T12:02:38;31.80;;;21.30;;
84915;SDS011;75178;53.054;5.846;2024-03-08T12:05:23;29.63;;;20.30;;
84915;SDS011;75178;53.054;5.846;2024-03-08T12:08:07;33.03;;;22.08;;
84915;SDS011;75178;53.054;5.846;2024-03-08T12:10:51;33.47;;;21.80;;
84915;SDS011;75178;53.054;5.846;2024-03-08T12:13:36;32.50;;;22.48;;
84915;SDS011;75178;53.054;5.846;2024-03-08T12:16:21;31.02;;;20.63;;
84915;SDS011;75178;53.054;5.846;2024-03-08T12:19:08;32.85;;;21.13;;
84915;SDS011;75178;53.054;5.846;2024-03-08T12:21:53;33.22;;;21.45;;
84915;SDS011;75178;53.054;5.846;2024-03-08T12:24:37;32.78;;;20.30;;
84915;SDS011;75178;53.054;5.846;2024-03-08T12:27:22;34.15;;;21.45;;
84915;SDS011;75178;53.054;5.846;2024-03-08T12:30:19;29.63;;;20.35;;
84915;SDS011;75178;53.054;5.846;2024-03-08T12:33:05;36.88;;;21.52;;
84915;SDS011;75178;53.054;5.846;2024-03-08T12:35:50;33.17;;;19.95;;
84915;SDS011;75178;53.054;5.846;2024-03-08T12:38:35;33.05;;;20.80;;
84915;SDS011;75178;53.054;5.846;2024-03-08T12:41:19;30.60;;;19.77;;
84915;SDS011;75178;53.054;5.846;2024-03-08T12:44:04;39.42;;;20.65;;
84915;SDS011;75178;53.054;5.846;2024-03-08T12:46:48;27.70;;;20.30;;
84915;SDS011;75178;53.054;5.846;2024-03-08T12:49:34;26.38;;;19.55;;
84915;SDS011;75178;53.054;5.846;2024-03-08T12:52:18;30.13;;;20.75;;
84915;SDS011;75178;53.054;5.846;2024-03-08T12:55:02;32.70;;;20.50;;
84915;SDS011;75178;53.054;5.846;2024-03-08T12:57:47;29.85;;;21.10;;
84915;SDS011;75178;53.054;5.846;2024-03-08T13:00:31;28.20;;;19.33;;
84915;SDS011;75178;53.054;5.846;2024-03-08T13:03:15;28.50;;;20.08;;
84915;SDS011;75178;53.054;5.846;2024-03-08T13:06:01;32.38;;;21.05;;
84915;SDS011;75178;53.054;5.846;2024-03-08T13:08:45;27.52;;;19.42;;
84915;SDS011;75178;53.054;5.846;2024-03-08T13:11:29;35.40;;;21.70;;
84915;SDS011;75178;53.054;5.846;2024-03-08T13:14:13;32.55;;;20.67;;
84915;SDS011;75178;53.054;5.846;2024-03-08T13:16:58;32.35;;;20.35;;
84915;SDS011;75178;53.054;5.846;2024-03-08T13:19:42;25.67;;;19.52;;
84915;SDS011;75178;53.054;5.846;2024-03-08T13:22:29;31.52;;;21.48;;
84915;SDS011;75178;53.054;5.846;2024-03-08T13:25:14;31.02;;;21.30;;
84915;SDS011;75178;53.054;5.846;2024-03-08T13:27:58;28.40;;;20.10;;
84915;SDS011;75178;53.054;5.846;2024-03-08T13:30:42;31.40;;;20.50;;
84915;SDS011;75178;53.054;5.846;2024-03-08T13:33:27;29.92;;;20.48;;
84915;SDS011;75178;53.054;5.846;2024-03-08T13:36:11;33.05;;;20.48;;
84915;SDS011;75178;53.054;5.846;2024-03-08T13:38:56;34.17;;;21.67;;
84915;SDS011;75178;53.054;5.846;2024-03-08T13:41:40;27.08;;;18.88;;
84915;SDS011;75178;53.054;5.846;2024-03-08T13:44:25;29.92;;;18.98;;
84915;SDS011;75178;53.054;5.846;2024-03-08T13:47:09;27.35;;;19.60;;
84915;SDS011;75178;53.054;5.846;2024-03-08T13:49:53;29.20;;;19.58;;
84915;SDS011;75178;53.054;5.846;2024-03-08T13:52:38;33.58;;;19.88;;
84915;SDS011;75178;53.054;5.846;2024-03-08T13:55:24;27.60;;;19.45;;
84915;SDS011;75178;53.054;5.846;2024-03-08T13:58:08;28.63;;;19.95;;
84915;SDS011;75178;53.054;5.846;2024-03-08T14:00:52;27.13;;;19.23;;
84915;SDS011;75178;53.054;5.846;2024-03-08T14:03:37;28.23;;;19.40;;
84915;SDS011;75178;53.054;5.846;2024-03-08T14:06:21;28.35;;;19.17;;
84915;SDS011;75178;53.054;5.846;2024-03-08T14:09:05;24.30;;;18.40;;
84915;SDS011;75178;53.054;5.846;2024-03-08T14:11:51;28.10;;;19.10;;
84915;SDS011;75178;53.054;5.846;2024-03-08T14:14:36;27.77;;;19.27;;
84915;SDS011;75178;53.054;5.846;2024-03-08T14:17:20;25.83;;;19.33;;
84915;SDS011;75178;53.054;5.846;2024-03-08T14:20:05;28.55;;;19.52;;
84915;SDS011;75178;53.054;5.846;2024-03-08T14:22:50;23.95;;;17.42;;
84915;SDS011;75178;53.054;5.846;2024-03-08T14:25:35;23.42;;;17.75;;
84915;SDS011;75178;53.054;5.846;2024-03-08T14:28:20;29.85;;;19.85;;
84915;SDS011;75178;53.054;5.846;2024-03-08T14:31:04;24.73;;;19.08;;
84915;SDS011;75178;53.054;5.846;2024-03-08T14:33:48;29.10;;;18.95;;
84915;SDS011;75178;53.054;5.846;2024-03-08T14:36:32;26.38;;;16.48;;
84915;SDS011;75178;53.054;5.846;2024-03-08T14:39:17;24.67;;;17.75;;
84915;SDS011;75178;53.054;5.846;2024-03-08T14:42:01;24.90;;;18.02;;
84915;SDS011;75178;53.054;5.846;2024-03-08T14:44:49;25.13;;;17.17;;
84915;SDS011;75178;53.054;5.846;2024-03-08T14:47:48;25.83;;;17.55;;
84915;SDS011;75178;53.054;5.846;2024-03-08T14:50:33;25.83;;;17.95;;
84915;SDS011;75178;53.054;5.846;2024-03-08T14:53:18;27.40;;;18.58;;
84915;SDS011;75178;53.054;5.846;2024-03-08T14:56:02;29.13;;;18.58;;
84915;SDS011;75178;53.054;5.846;2024-03-08T14:58:48;27.27;;;17.50;;
84915;SDS011;75178;53.054;5.846;2024-03-08T15:01:48;23.45;;;17.08;;
84915;SDS011;75178;53.054;5.846;2024-03-08T15:04:32;25.63;;;17.50;;
84915;SDS011;75178;53.054;5.846;2024-03-08T15:07:16;23.33;;;16.63;;
84915;SDS011;75178;53.054;5.846;2024-03-08T15:10:01;24.15;;;17.38;;
84915;SDS011;75178;53.054;5.846;2024-03-08T15:12:45;25.08;;;18.27;;
84915;SDS011;75178;53.054;5.846;2024-03-08T15:15:29;25.90;;;17.38;;
84915;SDS011;75178;53.054;5.846;2024-03-08T15:18:22;26.25;;;17.85;;
84915;SDS011;75178;53.054;5.846;2024-03-08T15:21:10;24.92;;;17.52;;
84915;SDS011;75178;53.054;5.846;2024-03-08T15:23:58;24.88;;;17.90;;
84915;SDS011;75178;53.054;5.846;2024-03-08T15:26:42;28.95;;;17.00;;
84915;SDS011;75178;53.054;5.846;2024-03-08T15:29:26;23.52;;;17.05;;
84915;SDS011;75178;53.054;5.846;2024-03-08T15:32:11;24.83;;;16.55;;
84915;SDS011;75178;53.054;5.846;2024-03-08T15:34:56;24.40;;;16.65;;
84915;SDS011;75178;53.054;5.846;2024-03-08T15:37:40;26.75;;;17.35;;
84915;SDS011;75178;53.054;5.846;2024-03-08T15:40:26;23.75;;;16.60;;
84915;SDS011;75178;53.054;5.846;2024-03-08T15:43:10;25.00;;;17.35;;
84915;SDS011;75178;53.054;5.846;2024-03-08T15:45:54;25.40;;;17.77;;
84915;SDS011;75178;53.054;5.846;2024-03-08T15:48:38;27.35;;;17.20;;
84915;SDS011;75178;53.054;5.846;2024-03-08T15:51:24;25.75;;;18.50;;
84915;SDS011;75178;53.054;5.846;2024-03-08T15:54:14;21.05;;;16.65;;
84915;SDS011;75178;53.054;5.846;2024-03-08T15:56:59;27.20;;;17.60;;
84915;SDS011;75178;53.054;5.846;2024-03-08T15:59:43;28.60;;;18.10;;
84915;SDS011;75178;53.054;5.846;2024-03-08T16:02:27;29.60;;;17.58;;
84915;SDS011;75178;53.054;5.846;2024-03-08T16:05:12;28.23;;;18.40;;
84915;SDS011;75178;53.054;5.846;2024-03-08T16:07:58;25.08;;;17.27;;